Weather at Belluno Airport

Public forecast

Using degrees Celsius for public forecast. Weather courtesy of forecast.io.

Closest aviation weather report (METAR) to Belluno Airport

Closest report is Aviano Air Base, 16.5 nm (30.6 km) ESE. Retrieved 2020/10/26 20:55 UTC (33 minutes ago):

LIPA 262055Z 14003KT 9999 SCT020 BKN035 16/16 Q1006 RMK OVC VIS MIN 9999 WIND THR05/////KT WIND THR23/////KT A2973 BLU

Closest aviation forecast (TAF) to Belluno Airport

Forecast is more than 12 hours old.

Closest forecast is Aviano Air Base, 16.5 nm (30.6 km) ESE. Retrieved 2015/11/03 12:24 UTC (5 years ago):

TAF TAF LIPA 031100Z 0312/0324 VRB03KT CAVOK